createdAt,value
2022-10-06T00:01:04.422Z,9.51
2022-10-06T00:03:32.547Z,9.48
2022-10-06T00:06:01.962Z,9.48
2022-10-06T00:08:31.434Z,9.50
2022-10-06T00:10:59.689Z,9.52
2022-10-06T00:13:28.672Z,9.53
2022-10-06T00:15:58.304Z,9.48
2022-10-06T00:18:26.820Z,9.40
2022-10-06T00:20:56.390Z,9.33
2022-10-06T00:23:25.043Z,9.21
2022-10-06T00:25:53.307Z,9.13
2022-10-06T00:28:21.611Z,9.05
2022-10-06T00:30:51.417Z,9.05
2022-10-06T00:33:21.412Z,9.02
2022-10-06T00:35:49.725Z,9.01
2022-10-06T00:38:18.518Z,8.97
2022-10-06T00:40:48.372Z,8.95
2022-10-06T00:43:45.793Z,8.94
2022-10-06T00:46:19.369Z,8.91
2022-10-06T00:48:53.163Z,8.85
2022-10-06T00:51:22.839Z,8.84
2022-10-06T00:53:51.947Z,8.75
2022-10-06T00:56:20.248Z,8.63
2022-10-06T00:58:50.143Z,8.51
2022-10-06T01:01:18.631Z,8.44
2022-10-06T01:03:52.129Z,8.39
2022-10-06T01:06:20.109Z,8.36
2022-10-06T01:08:48.586Z,8.36
2022-10-06T01:11:16.574Z,8.31
2022-10-06T01:13:46.564Z,8.26
2022-10-06T01:16:21.123Z,8.20
2022-10-06T01:18:51.968Z,8.14
2022-10-06T01:21:28.017Z,8.06
2022-10-06T01:23:58.592Z,8.04
2022-10-06T01:26:28.690Z,7.99
2022-10-06T01:28:57.092Z,7.96
2022-10-06T01:31:25.678Z,7.88
2022-10-06T01:33:54.055Z,7.92
2022-10-06T01:36:22.383Z,7.88
2022-10-06T01:38:50.363Z,7.85
2022-10-06T01:41:19.857Z,7.82
2022-10-06T01:43:47.822Z,7.82
2022-10-06T01:46:16.271Z,7.78
2022-10-06T01:48:44.350Z,7.75
2022-10-06T01:51:16.061Z,7.67
2022-10-06T01:53:44.320Z,7.59
2022-10-06T01:56:12.529Z,7.49
2022-10-06T01:58:41.934Z,7.52
2022-10-06T02:01:11.083Z,7.47
2022-10-06T02:03:40.239Z,7.47
2022-10-06T02:06:09.058Z,7.46
2022-10-06T02:08:37.441Z,7.49
2022-10-06T02:11:10.252Z,7.48
2022-10-06T02:13:39.258Z,7.47
2022-10-06T02:16:10.214Z,7.44
2022-10-06T02:18:38.258Z,7.41
2022-10-06T02:21:06.995Z,7.35
2022-10-06T02:23:34.969Z,7.41
2022-10-06T02:26:04.511Z,7.43
2022-10-06T02:28:33.728Z,7.42
2022-10-06T02:31:03.587Z,7.40
2022-10-06T02:33:33.251Z,7.35
2022-10-06T02:36:01.630Z,7.32
2022-10-06T02:38:32.464Z,7.28
2022-10-06T02:41:01.726Z,7.25
2022-10-06T02:43:31.495Z,7.21
2022-10-06T02:46:01.443Z,7.18
2022-10-06T02:48:30.899Z,7.09
2022-10-06T02:51:02.451Z,7.03
2022-10-06T02:53:30.690Z,7.02
2022-10-06T02:56:00.799Z,6.97
2022-10-06T02:58:30.299Z,6.98
2022-10-06T03:01:03.365Z,7.00
2022-10-06T03:03:31.906Z,6.88
2022-10-06T03:06:06.454Z,6.82
2022-10-06T03:08:34.984Z,6.82
2022-10-06T03:11:03.623Z,6.81
2022-10-06T03:13:31.716Z,6.83
2022-10-06T03:15:59.806Z,6.82
2022-10-06T03:18:28.215Z,6.80
2022-10-06T03:21:02.978Z,6.75
2022-10-06T03:23:31.056Z,6.71
2022-10-06T03:25:59.345Z,6.65
2022-10-06T03:28:28.811Z,6.62
2022-10-06T03:31:03.075Z,6.59
2022-10-06T03:33:31.752Z,6.61
2022-10-06T03:36:00.768Z,6.65
2022-10-06T03:38:31.828Z,6.66
2022-10-06T03:41:04.483Z,6.64
2022-10-06T03:43:32.564Z,6.64
2022-10-06T03:46:01.817Z,6.59
2022-10-06T03:48:30.685Z,6.60
2022-10-06T03:51:00.202Z,6.58
2022-10-06T03:53:30.187Z,6.56
2022-10-06T03:56:02.021Z,6.43
2022-10-06T03:58:30.545Z,6.40
2022-10-06T04:01:03.554Z,6.40
2022-10-06T04:03:31.409Z,6.39
2022-10-06T04:06:02.003Z,6.38
2022-10-06T04:08:33.272Z,6.40
2022-10-06T04:11:07.356Z,6.43
2022-10-06T04:13:35.388Z,6.46
2022-10-06T04:16:12.229Z,6.50
2022-10-06T04:18:40.405Z,6.47
2022-10-06T04:21:08.449Z,6.51
2022-10-06T04:23:38.128Z,6.45
2022-10-06T04:26:09.595Z,6.47
2022-10-06T04:28:39.289Z,6.43
2022-10-06T04:31:15.462Z,6.45
2022-10-06T04:33:43.551Z,6.43
2022-10-06T04:36:15.168Z,6.44
2022-10-06T04:38:44.633Z,6.45
2022-10-06T04:41:14.586Z,6.35
2022-10-06T04:43:42.769Z,6.38
2022-10-06T04:46:30.666Z,6.52
2022-10-06T04:48:59.514Z,6.49
2022-10-06T04:51:28.470Z,6.45
2022-10-06T04:53:57.825Z,6.45
2022-10-06T04:56:27.970Z,6.41
2022-10-06T04:58:57.304Z,6.44
2022-10-06T05:01:27.254Z,6.43
2022-10-06T05:03:57.123Z,6.40
2022-10-06T05:06:27.459Z,6.41
2022-10-06T05:08:58.747Z,6.48
2022-10-06T05:11:27.595Z,6.59
2022-10-06T05:13:57.619Z,6.65
2022-10-06T05:16:27.757Z,6.76
2022-10-06T05:18:55.949Z,6.86
2022-10-06T05:21:26.248Z,6.95
2022-10-06T05:23:54.282Z,7.08
2022-10-06T05:26:25.909Z,7.18
2022-10-06T05:28:54.025Z,7.33
2022-10-06T05:31:24.189Z,7.54
2022-10-06T05:33:52.307Z,7.74
2022-10-06T05:36:22.267Z,7.96
2022-10-06T05:38:50.267Z,8.20
2022-10-06T05:41:20.289Z,8.39
2022-10-06T05:43:49.992Z,8.59
2022-10-06T05:46:21.274Z,8.80
2022-10-06T05:48:50.320Z,8.78
2022-10-06T05:51:20.031Z,8.88
2022-10-06T05:53:48.709Z,9.01
2022-10-06T05:56:18.584Z,9.06
2022-10-06T05:58:48.109Z,9.18
2022-10-06T06:01:19.315Z,9.32
2022-10-06T06:03:49.491Z,9.41
2022-10-06T06:06:19.800Z,9.51
2022-10-06T06:08:48.710Z,9.61
2022-10-06T06:11:16.711Z,9.65
2022-10-06T06:13:44.717Z,9.78
2022-10-06T06:16:16.833Z,9.82
2022-10-06T06:18:46.289Z,9.90
2022-10-06T06:21:14.267Z,9.97
2022-10-06T06:23:45.128Z,9.97
2022-10-06T06:26:15.229Z,10.04
2022-10-06T06:28:43.990Z,10.06
2022-10-06T06:31:19.152Z,10.16
2022-10-06T06:33:52.076Z,10.21
2022-10-06T06:36:21.325Z,10.25
2022-10-06T06:38:52.021Z,10.31
2022-10-06T06:41:21.619Z,10.37
2022-10-06T06:43:50.275Z,10.43
2022-10-06T06:46:20.068Z,10.51
2022-10-06T06:48:50.039Z,10.61
2022-10-06T06:51:21.337Z,10.67
2022-10-06T06:53:49.357Z,10.77
2022-10-06T06:56:17.614Z,10.88
2022-10-06T06:58:47.704Z,11.03
2022-10-06T07:01:17.552Z,11.15
2022-10-06T07:04:03.650Z,11.32
2022-10-06T07:06:33.637Z,11.44
2022-10-06T07:09:01.935Z,11.36
2022-10-06T07:11:31.994Z,11.35
2022-10-06T07:14:03.243Z,11.25
2022-10-06T07:16:49.829Z,11.14
2022-10-06T07:19:36.747Z,11.20
2022-10-06T07:22:48.390Z,11.43
2022-10-06T07:25:25.682Z,11.36
2022-10-06T07:27:55.201Z,11.46
2022-10-06T07:30:25.763Z,11.50
2022-10-06T07:32:54.887Z,11.59
2022-10-06T07:35:23.923Z,11.86
2022-10-06T07:37:54.358Z,12.14
2022-10-06T07:40:22.584Z,12.39
2022-10-06T07:42:52.213Z,12.54
2022-10-06T07:45:39.038Z,12.74
2022-10-06T07:48:09.172Z,12.84
2022-10-06T07:50:39.511Z,12.94
2022-10-06T07:53:09.887Z,13.11
2022-10-06T07:55:40.069Z,13.21
2022-10-06T07:58:12.774Z,13.41
2022-10-06T08:00:40.619Z,13.52
2022-10-06T08:03:09.607Z,13.60
2022-10-06T08:05:39.279Z,13.60
2022-10-06T08:08:08.680Z,13.78
2022-10-06T08:10:36.694Z,13.98
2022-10-06T08:13:06.516Z,14.02
2022-10-06T08:15:43.789Z,14.13
2022-10-06T08:18:27.153Z,14.16
2022-10-06T08:20:59.713Z,14.25
2022-10-06T08:23:29.042Z,14.32
2022-10-06T08:25:57.022Z,14.35
2022-10-06T08:28:25.674Z,14.31
2022-10-06T08:30:55.148Z,14.49
2022-10-06T08:33:23.151Z,14.64
2022-10-06T08:35:51.739Z,14.73
2022-10-06T08:38:20.441Z,14.89
2022-10-06T08:40:50.030Z,15.03
2022-10-06T08:43:23.317Z,15.22
2022-10-06T08:48:29.115Z,15.38
2022-10-06T08:51:08.685Z,15.34
2022-10-06T08:53:47.115Z,15.41
2022-10-06T08:56:21.684Z,15.45
2022-10-06T08:58:55.112Z,15.61
2022-10-06T09:01:25.982Z,15.86
2022-10-06T09:04:01.765Z,16.09
2022-10-06T09:06:42.061Z,16.28
2022-10-06T09:09:21.015Z,16.41
2022-10-06T09:12:01.460Z,16.55
2022-10-06T09:14:34.926Z,16.77
2022-10-06T09:17:07.880Z,16.93
2022-10-06T09:19:42.676Z,17.09
2022-10-06T09:22:19.876Z,17.02
2022-10-06T09:24:50.703Z,17.32
2022-10-06T09:27:23.285Z,17.51
2022-10-06T09:29:51.637Z,17.55
2022-10-06T09:32:21.296Z,17.70
2022-10-06T09:34:52.191Z,17.76
2022-10-06T09:37:20.676Z,17.91
2022-10-06T09:39:51.083Z,17.80
2022-10-06T09:42:23.493Z,17.67
2022-10-06T09:44:59.124Z,17.74
2022-10-06T09:47:46.372Z,17.81
2022-10-06T09:50:22.091Z,18.04
2022-10-06T09:53:17.464Z,18.26
2022-10-06T09:55:52.183Z,18.35
2022-10-06T09:58:24.674Z,18.34
2022-10-06T10:00:56.314Z,18.17
2022-10-06T10:03:27.283Z,18.25
2022-10-06T10:05:56.290Z,18.29
2022-10-06T10:08:26.400Z,18.41
2022-10-06T10:11:27.996Z,18.73
2022-10-06T10:13:57.965Z,18.88
2022-10-06T10:16:27.123Z,18.74
2022-10-06T10:18:55.550Z,18.78
2022-10-06T10:21:30.375Z,18.83
2022-10-06T10:24:01.851Z,18.95
2022-10-06T10:26:45.844Z,19.08
2022-10-06T10:29:40.085Z,19.07
2022-10-06T10:32:17.644Z,19.19
2022-10-06T10:35:03.201Z,19.19
2022-10-06T10:37:40.886Z,19.18
2022-10-06T10:40:18.672Z,18.97
2022-10-06T10:42:52.611Z,19.04
2022-10-06T10:45:34.150Z,19.09
2022-10-06T10:48:03.044Z,18.99
2022-10-06T10:50:35.020Z,18.94
2022-10-06T10:53:11.463Z,18.85
2022-10-06T10:55:44.093Z,18.75
2022-10-06T10:58:19.820Z,18.90
2022-10-06T11:00:54.672Z,18.74
2022-10-06T11:03:22.698Z,18.70
2022-10-06T11:06:11.376Z,18.63
2022-10-06T11:08:47.642Z,18.68
2022-10-06T11:11:25.382Z,18.82
2022-10-06T11:13:57.435Z,18.76
2022-10-06T11:16:42.540Z,18.78
2022-10-06T11:19:22.969Z,18.82
2022-10-06T11:21:58.930Z,18.77
2022-10-06T11:24:36.118Z,18.74
2022-10-06T11:27:23.473Z,18.79
2022-10-06T11:30:02.453Z,18.81
2022-10-06T11:32:45.455Z,18.90
2022-10-06T11:35:20.403Z,19.06
2022-10-06T11:37:55.023Z,19.18
2022-10-06T11:40:49.549Z,19.48
2022-10-06T11:43:28.448Z,19.71
2022-10-06T11:46:04.501Z,19.98
2022-10-06T11:48:34.895Z,20.25
2022-10-06T11:51:31.444Z,20.28
2022-10-06T11:54:00.546Z,20.33
2022-10-06T11:56:46.739Z,20.43
2022-10-06T11:59:29.092Z,20.53
2022-10-06T12:01:58.943Z,20.55
2022-10-06T12:04:28.670Z,20.53
2022-10-06T12:07:03.747Z,20.69
2022-10-06T12:09:52.084Z,20.73
2022-10-06T12:13:31.762Z,20.85
2022-10-06T12:18:57.014Z,20.97
2022-10-06T12:21:46.966Z,21.01
2022-10-06T12:24:37.008Z,21.11
2022-10-06T12:27:28.313Z,21.18
2022-10-06T12:30:03.500Z,21.51
2022-10-06T12:32:46.523Z,21.48
2022-10-06T12:35:25.050Z,21.33
2022-10-06T12:37:55.613Z,21.43
2022-10-06T12:40:49.364Z,21.42
2022-10-06T12:43:48.991Z,21.33
2022-10-06T12:46:23.738Z,21.40
2022-10-06T12:49:04.211Z,21.27
2022-10-06T12:51:35.578Z,21.27
2022-10-06T12:54:12.688Z,21.25
2022-10-06T12:56:42.420Z,21.39
2022-10-06T12:59:25.480Z,21.49
2022-10-06T13:01:57.038Z,21.61
2022-10-06T13:04:36.014Z,21.62
2022-10-06T13:07:15.844Z,21.57
2022-10-06T13:09:46.178Z,21.37
2022-10-06T13:12:22.379Z,21.33
2022-10-06T13:15:10.316Z,21.28
2022-10-06T13:17:42.114Z,21.29
2022-10-06T13:20:20.699Z,21.30
2022-10-06T13:22:57.065Z,21.31
2022-10-06T13:25:27.431Z,21.30
2022-10-06T13:27:55.535Z,21.36
2022-10-06T13:30:24.282Z,21.24
2022-10-06T13:32:54.836Z,21.07
2022-10-06T13:35:26.327Z,20.93
2022-10-06T13:37:55.988Z,20.82
2022-10-06T13:40:44.428Z,20.76
2022-10-06T13:43:19.582Z,20.66
2022-10-06T13:45:49.592Z,20.63
2022-10-06T13:48:22.225Z,20.64
2022-10-06T13:50:53.157Z,20.55
2022-10-06T13:53:27.904Z,20.46
2022-10-06T13:55:57.641Z,20.44
2022-10-06T13:58:28.169Z,20.43
2022-10-06T14:00:58.172Z,20.42
2022-10-06T14:03:29.709Z,20.40
2022-10-06T14:06:17.741Z,20.31
2022-10-06T14:08:49.492Z,20.16
2022-10-06T14:11:24.331Z,20.07
2022-10-06T14:13:57.386Z,20.00
2022-10-06T14:16:27.079Z,19.90
2022-10-06T14:18:57.100Z,19.76
2022-10-06T14:21:34.259Z,19.66
2022-10-06T14:24:06.152Z,19.60
2022-10-06T14:26:39.596Z,19.56
2022-10-06T14:29:07.710Z,19.41
2022-10-06T14:31:36.041Z,19.36
2022-10-06T14:34:05.268Z,19.39
2022-10-06T14:36:35.263Z,19.37
2022-10-06T14:39:04.102Z,19.30
2022-10-06T14:41:32.823Z,19.34
2022-10-06T14:44:06.107Z,19.30
2022-10-06T14:46:34.875Z,19.26
2022-10-06T14:49:06.149Z,19.25
2022-10-06T14:51:36.558Z,19.19
2022-10-06T14:54:06.156Z,19.11
2022-10-06T14:56:37.475Z,19.05
2022-10-06T14:59:08.530Z,18.96
2022-10-06T15:01:39.311Z,18.90
2022-10-06T15:04:09.425Z,18.86
2022-10-06T15:06:54.903Z,18.75
2022-10-06T15:09:23.920Z,18.68
2022-10-06T15:11:54.252Z,18.71
2022-10-06T15:14:24.194Z,18.58
2022-10-06T15:16:54.271Z,18.58
2022-10-06T15:19:22.279Z,18.53
2022-10-06T15:21:51.222Z,18.46
2022-10-06T15:24:20.683Z,18.37
2022-10-06T15:27:06.746Z,18.29
2022-10-06T15:29:36.226Z,18.26
2022-10-06T15:32:06.580Z,18.17
2022-10-06T15:34:37.054Z,18.09
2022-10-06T15:37:06.340Z,17.87
2022-10-06T15:39:37.424Z,17.77
2022-10-06T15:42:06.661Z,17.69
2022-10-06T15:44:36.641Z,17.71
2022-10-06T15:47:07.207Z,17.65
2022-10-06T15:49:40.599Z,17.59
2022-10-06T15:52:10.147Z,17.51
2022-10-06T15:54:39.840Z,17.40
2022-10-06T15:57:11.577Z,17.40
2022-10-06T15:59:44.102Z,17.33
2022-10-06T16:02:16.221Z,17.22
2022-10-06T16:05:16.174Z,17.20
2022-10-06T16:07:44.251Z,17.18
2022-10-06T16:10:13.214Z,17.11
2022-10-06T16:12:41.219Z,16.98
2022-10-06T16:15:11.702Z,16.91
2022-10-06T16:17:39.720Z,16.86
2022-10-06T16:20:09.367Z,16.77
2022-10-06T16:22:37.771Z,16.78
2022-10-06T16:25:06.503Z,16.76
2022-10-06T16:27:35.497Z,16.74
2022-10-06T16:30:03.591Z,16.69
2022-10-06T16:32:32.896Z,16.66
2022-10-06T16:35:00.959Z,16.59
2022-10-06T16:37:28.953Z,16.56
2022-10-06T16:39:56.961Z,16.49
2022-10-06T16:42:25.361Z,16.45
2022-10-06T16:44:53.375Z,16.43
2022-10-06T16:47:21.326Z,16.41
2022-10-06T16:49:51.340Z,16.35
2022-10-06T16:52:19.385Z,16.25
2022-10-06T16:54:47.523Z,16.24
2022-10-06T16:57:15.545Z,16.25
2022-10-06T16:59:46.900Z,16.24
2022-10-06T17:02:15.197Z,16.23
2022-10-06T17:04:43.159Z,16.15
2022-10-06T17:07:12.558Z,16.15
2022-10-06T17:09:51.087Z,16.14
2022-10-06T17:12:28.583Z,16.12
2022-10-06T17:14:56.548Z,16.13
2022-10-06T17:17:24.771Z,16.08
2022-10-06T17:19:53.948Z,16.10
2022-10-06T17:22:23.349Z,16.06
2022-10-06T17:24:51.340Z,16.02
2022-10-06T17:27:19.335Z,15.99
2022-10-06T17:29:47.409Z,15.97
2022-10-06T17:32:15.688Z,15.94
2022-10-06T17:34:43.701Z,15.97
2022-10-06T17:37:11.953Z,15.97
2022-10-06T17:39:46.170Z,15.95
2022-10-06T17:42:15.385Z,15.97
2022-10-06T17:44:43.379Z,15.97
2022-10-06T17:47:12.970Z,15.93
2022-10-06T17:49:40.945Z,15.96
2022-10-06T17:52:08.903Z,15.91
2022-10-06T17:54:36.955Z,15.92
2022-10-06T17:57:06.441Z,15.86
2022-10-06T17:59:35.117Z,15.87
2022-10-06T18:02:04.743Z,15.84
2022-10-06T18:04:34.420Z,15.81
2022-10-06T18:07:03.369Z,15.82
2022-10-06T18:09:31.388Z,15.78
2022-10-06T18:12:00.143Z,15.75
2022-10-06T18:14:33.396Z,15.68
2022-10-06T18:17:04.302Z,15.65
2022-10-06T18:19:33.877Z,15.62
2022-10-06T18:22:04.293Z,15.58
2022-10-06T18:24:33.705Z,15.49
2022-10-06T18:27:02.869Z,15.44
2022-10-06T18:29:34.537Z,15.43
2022-10-06T18:37:40.648Z,15.34
2022-10-06T18:40:11.688Z,15.34
2022-10-06T18:42:40.354Z,15.25
2022-10-06T18:45:29.816Z,15.26
2022-10-06T18:48:15.383Z,15.22
2022-10-06T18:50:44.030Z,15.15
2022-10-06T18:53:12.241Z,15.11
2022-10-06T18:55:40.295Z,15.08
2022-10-06T18:58:08.297Z,15.07
2022-10-06T19:00:37.854Z,15.04
2022-10-06T19:03:06.321Z,14.96
2022-10-06T19:05:35.572Z,14.89
2022-10-06T19:08:05.074Z,14.79
2022-10-06T19:10:35.775Z,14.74
2022-10-06T19:13:04.116Z,14.69
2022-10-06T19:15:32.560Z,14.62
2022-10-06T19:18:02.088Z,14.62
2022-10-06T19:20:30.332Z,14.50
2022-10-06T19:22:58.494Z,14.49
2022-10-06T19:25:27.027Z,14.41
2022-10-06T19:27:55.315Z,14.40
2022-10-06T19:30:24.037Z,14.41
2022-10-06T19:32:53.043Z,14.38
2022-10-06T19:35:22.867Z,14.43
2022-10-06T19:37:51.417Z,14.43
2022-10-06T19:40:19.694Z,14.40
2022-10-06T19:42:49.866Z,14.38
2022-10-06T19:45:19.242Z,14.31
2022-10-06T19:47:47.591Z,14.10
2022-10-06T19:50:17.141Z,13.97
2022-10-06T19:52:47.364Z,13.79
2022-10-06T19:55:15.873Z,13.65
2022-10-06T19:57:44.590Z,13.59
2022-10-06T20:00:13.798Z,13.56
2022-10-06T20:02:43.121Z,13.57
2022-10-06T20:05:12.713Z,13.62
2022-10-06T20:07:41.255Z,13.55
2022-10-06T20:10:11.971Z,13.48
2022-10-06T20:12:41.619Z,13.46
2022-10-06T20:15:11.058Z,13.40
2022-10-06T20:17:39.496Z,13.33
2022-10-06T20:20:08.296Z,13.27
2022-10-06T20:22:36.938Z,13.23
2022-10-06T20:25:07.254Z,13.18
2022-10-06T20:27:36.721Z,13.16
2022-10-06T20:30:05.508Z,13.10
2022-10-06T20:32:33.472Z,12.99
2022-10-06T20:35:03.375Z,12.80
2022-10-06T20:37:31.367Z,12.77
2022-10-06T20:40:17.202Z,12.69
2022-10-06T20:42:49.567Z,12.64
2022-10-06T20:45:18.066Z,12.73
2022-10-06T20:47:48.009Z,12.77
2022-10-06T20:50:16.104Z,12.72
2022-10-06T20:52:44.118Z,12.64
2022-10-06T20:55:12.058Z,12.66
2022-10-06T20:57:40.045Z,12.61
2022-10-06T21:00:14.714Z,12.56
2022-10-06T21:02:42.924Z,12.52
2022-10-06T21:05:11.193Z,12.47
2022-10-06T21:07:39.315Z,12.43
2022-10-06T21:10:08.692Z,12.42
2022-10-06T21:12:36.805Z,12.41
2022-10-06T21:15:05.368Z,12.35
2022-10-06T21:17:34.862Z,12.27
2022-10-06T21:20:02.942Z,12.18
2022-10-06T21:22:32.454Z,12.13
2022-10-06T21:25:00.593Z,12.12
2022-10-06T21:27:28.801Z,12.11
2022-10-06T21:29:56.837Z,12.10
2022-10-06T21:32:25.636Z,12.10
2022-10-06T21:34:56.072Z,12.08
2022-10-06T21:37:24.205Z,12.07
2022-10-06T21:39:52.262Z,12.06
2022-10-06T21:42:20.356Z,12.00
2022-10-06T21:44:48.413Z,12.03
2022-10-06T21:47:16.537Z,12.00
2022-10-06T21:49:44.674Z,11.99
2022-10-06T21:52:14.102Z,11.98
2022-10-06T21:54:42.197Z,11.94
2022-10-06T21:57:10.243Z,11.98
2022-10-06T21:59:38.323Z,11.93
2022-10-06T22:02:06.471Z,11.95
2022-10-06T22:04:38.838Z,11.86
2022-10-06T22:07:06.931Z,11.86
2022-10-06T22:09:36.428Z,11.86
2022-10-06T22:12:05.107Z,11.82
2022-10-06T22:14:34.786Z,11.81
2022-10-06T22:17:05.083Z,11.79
2022-10-06T22:19:33.324Z,11.78
2022-10-06T22:22:01.486Z,11.75
2022-10-06T22:24:29.699Z,11.69
2022-10-06T22:27:00.017Z,11.65
2022-10-06T22:29:28.372Z,11.64
2022-10-06T22:31:58.033Z,11.54
2022-10-06T22:34:26.506Z,11.42
2022-10-06T22:36:54.624Z,11.36
2022-10-06T22:39:22.732Z,11.31
2022-10-06T22:41:50.822Z,11.27
2022-10-06T22:44:20.275Z,11.31
2022-10-06T22:46:48.569Z,11.34
2022-10-06T22:49:16.725Z,11.31
2022-10-06T22:51:44.786Z,11.33
2022-10-06T22:54:18.901Z,11.35
2022-10-06T22:56:46.969Z,11.44
2022-10-06T22:59:15.032Z,11.56
2022-10-06T23:01:44.501Z,11.72
2022-10-06T23:04:12.569Z,11.75
2022-10-06T23:06:40.635Z,11.81
2022-10-06T23:09:08.685Z,11.92
2022-10-06T23:11:36.805Z,12.11
2022-10-06T23:14:04.926Z,12.17
2022-10-06T23:16:33.073Z,12.20
2022-10-06T23:19:02.607Z,12.16
2022-10-06T23:21:30.747Z,12.18
2022-10-06T23:24:01.439Z,12.21
2022-10-06T23:26:29.804Z,12.21
2022-10-06T23:29:00.044Z,12.18
2022-10-06T23:31:29.626Z,12.14
2022-10-06T23:33:57.918Z,12.06
2022-10-06T23:36:27.375Z,12.01
2022-10-06T23:38:56.007Z,11.93
2022-10-06T23:41:24.159Z,11.90
2022-10-06T23:43:52.448Z,11.90
2022-10-06T23:46:20.893Z,11.88
2022-10-06T23:48:49.162Z,11.86
2022-10-06T23:51:17.951Z,11.85
2022-10-06T23:53:47.703Z,11.87
2022-10-06T23:56:15.863Z,11.77
2022-10-06T23:58:50.941Z,11.72
